Time;durP1;ratioP1;P1;durP2;ratioP2;P2;SDS_P1;SDS_P2;PMS_P1;PMS_P2;Temp;Humidity;BMP_temperature;BMP_pressure;BME280_temperature;BME280_humidity;BME280_pressure;Samples;Min_cycle;Max_cycle;Signal;HPM_P1;HPM_P2
2024/04/27 00:02:00;;;;;;;8.00;4.45;;;;;;;-146.27;83.04;43212.53;5486913;26;20337;-65
2024/04/27 00:04:25;;;;;;;5.55;3.97;;;;;;;-146.27;82.71;43240.38;5467648;26;19998;-67
2024/04/27 00:06:50;;;;;;;6.95;3.65;;;;;;;-146.27;82.32;43264.25;5459867;26;20006;-65
2024/04/27 00:09:16;;;;;;;6.50;3.75;;;;;;;-146.27;81.68;43369.66;5475328;26;19998;-67
2024/04/27 00:11:45;;;;;;;5.90;3.85;;;;;;;-146.27;82.00;43339.84;5460000;26;20606;-66
2024/04/27 00:14:11;;;;;;;5.70;3.40;;;;;;;-146.27;81.50;43391.56;5470939;26;20005;-69
2024/04/27 00:16:38;;;;;;;6.72;3.85;;;;;;;-146.27;81.97;43353.75;5477518;26;20013;-66
2024/04/27 00:19:04;;;;;;;6.93;4.00;;;;;;;-146.27;82.55;43359.72;5486970;26;20075;-64
2024/04/27 00:21:31;;;;;;;6.53;3.35;;;;;;;-146.27;82.59;43329.88;5453832;26;20495;-64
2024/04/27 00:23:57;;;;;;;5.32;3.58;;;;;;;-146.27;82.58;43337.84;5454582;26;20459;-65
2024/04/27 00:26:22;;;;;;;11.13;4.22;;;;;;;-146.27;82.27;43349.78;5450681;26;20466;-67
2024/04/27 00:28:48;;;;;;;8.50;4.28;;;;;;;-146.27;82.44;43339.84;5460156;26;19994;-67
2024/04/27 00:31:13;;;;;;;5.30;3.20;;;;;;;-146.27;82.55;43345.81;5479195;26;20106;-66
2024/04/27 00:33:39;;;;;;;5.80;3.47;;;;;;;-146.27;82.68;43339.84;5470931;26;20408;-66
2024/04/27 00:36:17;;;;;;;6.50;3.70;;;;;;;-146.27;82.95;43294.09;5468459;26;20002;-64
2024/04/27 00:38:42;;;;;;;6.03;3.67;;;;;;;-146.27;82.52;43300.06;5476858;26;20452;-66
2024/04/27 00:41:13;;;;;;;6.72;3.95;;;;;;;-146.27;82.35;43310.00;5478402;26;20033;-65
2024/04/27 00:43:40;;;;;;;6.15;3.60;;;;;;;-146.27;82.34;43331.88;5475235;26;20032;-67
2024/04/27 00:46:07;;;;;;;7.47;4.03;;;;;;;-146.27;82.30;43357.72;5466751;26;20014;-64
2024/04/27 00:48:32;;;;;;;5.93;4.00;;;;;;;-146.27;82.03;43349.78;5478584;26;20015;-66
2024/04/27 00:50:59;;;;;;;5.13;3.63;;;;;;;-146.27;82.18;43349.78;5452826;26;20447;-67
2024/04/27 00:53:29;;;;;;;7.47;3.97;;;;;;;-146.27;81.95;43401.50;5454791;26;20009;-65
2024/04/27 00:55:56;;;;;;;5.82;3.60;;;;;;;-146.27;82.12;43413.44;5465618;26;20014;-67
2024/04/27 00:58:24;;;;;;;5.22;3.88;;;;;;;-146.27;82.39;43343.81;5479762;26;20001;-64
2024/04/27 01:00:49;;;;;;;8.80;3.92;;;;;;;-146.27;82.04;43395.53;5475648;26;19995;-66
2024/04/27 01:03:15;;;;;;;6.28;3.60;;;;;;;-146.27;81.87;43421.38;5475174;26;20033;-66
2024/04/27 01:05:41;;;;;;;5.35;3.13;;;;;;;-146.27;81.73;43451.22;5477698;26;20460;-67
2024/04/27 01:08:06;;;;;;;4.63;3.55;;;;;;;-146.27;81.87;43510.91;5465227;26;20053;-64
2024/04/27 01:10:32;;;;;;;7.05;3.65;;;;;;;-146.27;81.87;43469.13;5462316;26;20003;-65
2024/04/27 01:12:57;;;;;;;6.10;3.67;;;;;;;-146.27;82.23;43435.31;5471057;26;20454;-66
2024/04/27 01:15:25;;;;;;;6.95;3.97;;;;;;;-146.27;81.72;43508.91;5482146;26;20527;-66
2024/04/27 01:17:51;;;;;;;9.13;3.92;;;;;;;-146.27;82.00;43526.81;5463321;26;20006;-65
2024/04/27 01:20:16;;;;;;;6.10;4.00;;;;;;;-146.27;81.87;43518.88;5463548;26;20438;-65
2024/04/27 01:22:42;;;;;;;7.22;3.70;;;;;;;-146.27;81.30;43654.13;5454004;26;20139;-66
2024/04/27 01:25:07;;;;;;;5.30;3.65;;;;;;;-146.27;82.40;43516.88;5468100;26;20034;-67
2024/04/27 01:27:32;;;;;;;5.43;3.88;;;;;;;-146.27;82.33;43562.63;5482875;26;19998;-66
2024/04/27 01:29:58;;;;;;;6.40;3.65;;;;;;;-146.27;81.98;43546.72;5450170;26;20323;-65
2024/04/27 01:32:23;;;;;;;5.57;3.65;;;;;;;-146.27;82.45;43485.03;5474263;26;19994;-68
2024/04/27 01:34:48;;;;;;;9.40;4.13;;;;;;;-146.27;82.13;43510.91;5459427;26;20443;-70
2024/04/27 01:37:14;;;;;;;7.55;4.00;;;;;;;-146.27;82.21;43493.00;5483515;26;19998;-71
2024/04/27 01:39:39;;;;;;;7.07;3.97;;;;;;;-146.27;82.52;43491.00;5481874;26;20023;-70
2024/04/27 01:42:05;;;;;;;6.53;3.67;;;;;;;-146.27;82.69;43471.13;5464318;26;20464;-71
2024/04/27 01:44:30;;;;;;;10.02;3.65;;;;;;;-146.27;81.99;43491.00;5448771;26;19999;-70
2024/04/27 01:46:55;;;;;;;6.70;4.10;;;;;;;-146.27;82.25;43514.88;5476220;26;20034;-70
2024/04/27 01:49:21;;;;;;;5.43;4.15;;;;;;;-146.27;82.18;43495.00;5472538;26;20171;-70
2024/04/27 01:51:46;;;;;;;8.75;3.75;;;;;;;-146.27;82.31;43481.06;5467935;26;20003;-70
2024/04/27 01:54:12;;;;;;;9.27;4.32;;;;;;;-146.27;82.00;43487.03;5465775;26;20003;-71
2024/04/27 01:56:37;;;;;;;7.38;4.60;;;;;;;-146.27;82.55;43487.03;5453067;26;20003;-71
2024/04/27 01:59:03;;;;;;;5.72;3.75;;;;;;;-146.27;82.47;43463.16;5461914;26;20031;-70
2024/04/27 02:01:31;;;;;;;10.38;4.22;;;;;;;-146.27;82.74;43475.09;5460308;26;20004;-71
2024/04/27 02:03:56;;;;;;;6.97;3.92;;;;;;;-146.27;82.41;43459.19;5468264;26;20002;-71
2024/04/27 02:06:22;;;;;;;7.63;4.45;;;;;;;-146.27;82.84;43487.03;5478747;26;20074;-71
2024/04/27 02:08:47;;;;;;;6.30;3.42;;;;;;;-146.27;83.05;43439.28;5461646;26;19998;-71
2024/04/27 02:11:13;;;;;;;5.63;3.70;;;;;;;-146.27;83.05;43437.31;5480804;26;20050;-69
2024/04/27 02:13:41;;;;;;;9.55;4.10;;;;;;;-146.27;82.56;43451.22;5478967;26;20002;-70
2024/04/27 02:19:07;;;;;;;8.63;4.50;;;;;;;-146.27;82.68;43471.13;5448361;26;20103;-70
2024/04/27 02:21:33;;;;;;;8.48;3.67;;;;;;;-146.27;82.72;43459.19;5466014;26;20002;-71
2024/04/27 02:23:58;;;;;;;7.55;4.22;;;;;;;-146.27;82.95;43475.09;5484031;26;20034;-70
2024/04/27 02:26:23;;;;;;;8.45;4.53;;;;;;;-146.27;82.79;43469.13;5480582;26;20037;-70
2024/04/27 02:28:49;;;;;;;6.88;4.15;;;;;;;-146.27;82.88;43491.00;5458720;26;20013;-71
2024/04/27 02:31:14;;;;;;;6.95;4.20;;;;;;;-146.27;83.42;43453.22;5472153;26;20068;-71
2024/04/27 02:33:39;;;;;;;6.43;4.53;;;;;;;-146.27;83.37;43463.16;5482631;25;20510;-71
2024/04/27 02:36:05;;;;;;;6.65;4.55;;;;;;;-146.27;83.12;43459.19;5457476;26;20455;-70
2024/04/27 02:38:30;;;;;;;7.00;4.30;;;;;;;-146.27;83.84;43447.25;5448965;26;20048;-71
2024/04/27 02:40:56;;;;;;;7.45;4.22;;;;;;;-146.27;83.65;43431.34;5466683;26;19999;-71
2024/04/27 02:43:21;;;;;;;7.95;4.50;;;;;;;-146.27;84.14;43389.56;5475898;26;20067;-69
2024/04/27 02:45:48;;;;;;;6.13;4.20;;;;;;;-146.27;83.50;43403.50;5448421;26;19995;-67
2024/04/27 02:48:13;;;;;;;5.70;4.30;;;;;;;-146.27;83.35;43395.53;5450420;26;19995;-66
2024/04/27 02:50:38;;;;;;;9.90;4.20;;;;;;;-146.27;83.29;43413.44;5473548;26;20017;-66
2024/04/27 02:53:04;;;;;;;7.82;4.70;;;;;;;-146.27;83.56;43385.59;5451370;26;20042;-65
2024/04/27 02:55:29;;;;;;;5.88;4.15;;;;;;;-146.27;83.19;43419.41;5452699;26;19995;-67
2024/04/27 02:57:55;;;;;;;11.43;4.85;;;;;;;-146.27;83.63;43379.63;5460771;26;20085;-66
2024/04/27 03:00:21;;;;;;;6.53;4.25;;;;;;;-146.27;83.39;43403.50;5466945;26;19998;-66
2024/04/27 03:02:46;;;;;;;7.95;4.43;;;;;;;-146.27;83.71;43347.78;5462172;26;20497;-66
2024/04/27 03:05:12;;;;;;;10.18;4.30;;;;;;;-146.27;83.37;43387.56;5461691;26;20017;-66
2024/04/27 03:07:38;;;;;;;8.15;4.30;;;;;;;-146.27;83.85;43345.81;5463839;26;20015;-66
2024/04/27 03:10:03;;;;;;;8.82;5.20;;;;;;;-146.27;83.96;43345.81;5473808;26;20303;-66
2024/04/27 03:12:29;;;;;;;7.60;4.75;;;;;;;-146.27;84.09;43335.84;5483685;26;19998;-68
2024/04/27 03:14:54;;;;;;;6.63;4.70;;;;;;;-146.27;84.27;43337.84;5481655;26;20742;-67
2024/04/27 03:17:19;;;;;;;8.10;4.20;;;;;;;-146.27;84.18;43298.06;5478019;26;19998;-66
2024/04/27 03:19:45;;;;;;;5.47;4.13;;;;;;;-146.27;84.22;43317.94;5467490;26;20027;-66
2024/04/27 03:22:10;;;;;;;5.55;4.10;;;;;;;-146.27;84.51;43282.16;5480047;26;20102;-66
2024/04/27 03:24:39;;;;;;;7.30;4.65;;;;;;;-146.27;84.45;43292.09;5465655;26;19990;-67
2024/04/27 03:27:05;;;;;;;7.72;4.18;;;;;;;-146.27;83.90;43308.00;5481624;26;20330;-67
2024/04/27 03:29:30;;;;;;;6.25;4.53;;;;;;;-146.27;83.98;43331.88;5474602;26;20009;-67
2024/04/27 03:31:56;;;;;;;6.80;4.25;;;;;;;-146.27;84.10;43327.91;5450899;26;20010;-68
2024/04/27 03:34:21;;;;;;;6.43;4.20;;;;;;;-146.27;84.10;43292.09;5473403;26;20346;-67
2024/04/27 03:36:47;;;;;;;6.97;4.47;;;;;;;-146.27;83.60;43331.88;5478651;26;19999;-66
2024/04/27 03:39:12;;;;;;;5.78;3.97;;;;;;;-146.27;84.15;43317.94;5475248;26;19991;-66
2024/04/27 03:41:41;;;;;;;6.65;4.47;;;;;;;-146.27;84.18;43319.94;5467660;26;20030;-65
2024/04/27 03:44:06;;;;;;;7.03;4.22;;;;;;;-146.27;84.57;43274.19;5468695;26;20575;-67
2024/04/27 03:46:32;;;;;;;7.15;4.90;;;;;;;-146.27;85.06;43260.25;5451574;26;19999;-65
2024/04/27 03:48:57;;;;;;;9.55;5.07;;;;;;;-146.27;84.88;43232.41;5485473;26;20006;-71
2024/04/27 03:51:22;;;;;;;6.55;4.00;;;;;;;-146.27;84.76;43234.41;5486044;26;19994;-65
2024/04/27 03:53:48;;;;;;;8.70;4.22;;;;;;;-146.27;84.59;43216.50;5472958;26;20010;-68
2024/04/27 03:56:14;;;;;;;5.60;4.15;;;;;;;-146.27;84.90;43220.47;5479745;26;20009;-69
2024/04/27 03:58:42;;;;;;;6.82;4.00;;;;;;;-146.27;84.68;43236.41;5450110;26;20072;-70
2024/04/27 04:01:07;;;;;;;7.82;4.30;;;;;;;-146.27;84.54;43256.28;5452916;26;20078;-70
2024/04/27 04:03:33;;;;;;;7.05;4.38;;;;;;;-146.27;84.42;43288.13;5474828;26;20002;-71
2024/04/27 04:05:58;;;;;;;9.95;4.50;;;;;;;-146.27;84.50;43234.41;5460436;26;20005;-71
2024/04/27 04:08:23;;;;;;;6.82;4.30;;;;;;;-146.27;84.50;43264.25;5460444;26;20005;-71
2024/04/27 04:10:49;;;;;;;7.95;4.18;;;;;;;-146.27;83.99;43304.03;5455378;26;20041;-71
2024/04/27 04:13:14;;;;;;;9.43;4.45;;;;;;;-146.27;84.16;43300.06;5473831;26;20048;-72
2024/04/27 04:15:40;;;;;;;5.90;3.90;;;;;;;-146.27;83.79;43363.69;5466522;26;20011;-71
2024/04/27 04:18:05;;;;;;;8.60;4.70;;;;;;;-146.27;83.45;43343.81;5452629;26;20355;-70
2024/04/27 04:20:31;;;;;;;6.95;4.13;;;;;;;-146.27;83.65;43407.47;5464163;26;19999;-70
2024/04/27 04:22:59;;;;;;;10.48;4.43;;;;;;;-146.27;83.85;43371.66;5472939;26;20121;-70
2024/04/27 04:25:25;;;;;;;8.52;4.60;;;;;;;-146.27;83.50;43413.44;5480440;26;20320;-73
2024/04/27 04:27:50;;;;;;;7.47;5.07;;;;;;;-146.27;83.02;43473.09;5483679;26;20006;-71
2024/04/27 04:30:16;;;;;;;6.78;4.50;;;;;;;-146.27;82.99;43483.06;5472181;26;19998;-72
2024/04/27 04:32:41;;;;;;;7.38;4.70;;;;;;;-146.27;82.54;43506.94;5480358;26;20002;-71
2024/04/27 04:35:07;;;;;;;11.50;4.88;;;;;;;-146.27;82.62;43516.88;5483324;26;19999;-70
2024/04/27 04:37:33;;;;;;;7.60;4.55;;;;;;;-146.27;82.90;43578.53;5472095;26;20010;-70
2024/04/27 04:39:58;;;;;;;8.15;4.95;;;;;;;-146.27;83.01;43622.31;5470210;26;20006;-71
2024/04/27 04:42:23;;;;;;;7.28;4.93;;;;;;;-146.27;82.89;43640.22;5458375;26;19998;-71
2024/04/27 04:44:49;;;;;;;9.23;4.53;;;;;;;-146.27;83.01;43701.88;5451526;26;20054;-69
2024/04/27 04:47:15;;;;;;;8.95;5.57;;;;;;;-146.27;83.01;43745.66;5452019;26;19995;-70
2024/04/27 04:49:40;;;;;;;11.02;6.82;;;;;;;-146.27;83.53;43751.63;5457775;26;20008;-71
2024/04/27 04:52:06;;;;;;;8.68;5.88;;;;;;;-146.27;83.52;43773.50;5484515;26;20009;-72
2024/04/27 04:54:31;;;;;;;11.45;6.68;;;;;;;-146.27;83.40;43777.47;5455234;26;20029;-71
2024/04/27 04:56:56;;;;;;;11.07;6.43;;;;;;;-146.27;83.45;43789.41;5477222;26;20007;-71
2024/04/27 04:59:22;;;;;;;12.40;7.45;;;;;;;-146.27;83.08;43827.22;5457509;26;20003;-70
2024/04/27 05:01:47;;;;;;;10.50;6.63;;;;;;;-146.27;82.65;43886.91;5459463;26;20005;-70
2024/04/27 05:04:13;;;;;;;12.95;7.38;;;;;;;-146.27;83.14;43924.69;5477736;26;19994;-70
2024/04/27 05:06:44;;;;;;;12.25;6.88;;;;;;;-146.27;82.97;43970.47;5476711;26;20002;-66
2024/04/27 05:09:09;;;;;;;12.20;7.70;;;;;;;-146.27;82.92;44014.22;5455999;26;20006;-66
2024/04/27 05:11:36;;;;;;;17.35;8.00;;;;;;;-146.27;83.13;44036.09;5464593;26;19999;-66
2024/04/27 05:14:02;;;;;;;11.13;8.05;;;;;;;-146.27;83.37;44040.09;5449134;26;20443;-66
2024/04/27 05:16:27;;;;;;;11.40;7.68;;;;;;;-146.27;84.02;43988.34;5472845;26;20042;-67
2024/04/27 05:18:52;;;;;;;12.98;7.95;;;;;;;-146.27;83.31;44016.22;5449643;26;20013;-67
2024/04/27 05:21:18;;;;;;;15.75;8.95;;;;;;;-146.27;82.97;44036.09;5465751;26;19995;-66
2024/04/27 05:23:43;;;;;;;14.18;8.10;;;;;;;-146.27;83.54;44022.19;5460580;26;20363;-67
2024/04/27 05:26:09;;;;;;;15.75;8.77;;;;;;;-146.27;82.92;44067.94;5464837;26;19991;-67
2024/04/27 05:28:34;;;;;;;16.75;8.38;;;;;;;-146.27;82.58;44038.09;5454470;26;20001;-65
2024/04/27 05:30:59;;;;;;;16.23;8.48;;;;;;;-146.27;82.03;44119.66;5455497;26;20005;-66
2024/04/27 05:33:25;;;;;;;13.05;8.45;;;;;;;-146.27;82.34;44115.69;5464059;26;19990;-66
2024/04/27 05:35:50;;;;;;;14.77;9.45;;;;;;;-146.27;82.24;44155.47;5448648;26;20426;-66
2024/04/27 05:38:15;;;;;;;16.85;8.98;;;;;;;-146.27;82.01;44111.72;5451899;26;20010;-65
2024/04/27 05:40:41;;;;;;;16.95;10.13;;;;;;;-146.27;81.76;44123.66;5470218;26;20021;-65
2024/04/27 05:43:08;;;;;;;13.13;8.20;;;;;;;-146.27;81.62;44113.69;5448987;26;20029;-67
2024/04/27 05:45:33;;;;;;;12.73;9.13;;;;;;;-146.27;81.67;44107.72;5466999;26;20009;-66
2024/04/27 05:47:58;;;;;;;15.43;10.10;;;;;;;-146.27;81.35;44111.72;5485076;26;19998;-68
2024/04/27 05:50:24;;;;;;;18.52;10.27;;;;;;;-146.27;81.53;44052.03;5467461;26;19995;-69
2024/04/27 05:52:49;;;;;;;14.32;9.40;;;;;;;-146.27;81.54;44042.06;5454779;26;20055;-67
2024/04/27 05:55:15;;;;;;;19.65;9.90;;;;;;;-146.27;81.65;44034.13;5461647;26;19999;-65
2024/04/27 05:57:40;;;;;;;22.58;10.63;;;;;;;-146.27;81.51;44036.09;5471187;26;19999;-67
2024/04/27 06:00:06;;;;;;;20.63;11.32;;;;;;;-146.27;81.87;44000.28;5463253;26;20074;-65
2024/04/27 06:02:31;;;;;;;23.33;12.43;;;;;;;-146.27;82.44;43960.50;5460511;26;19995;-67
2024/04/27 06:04:57;;;;;;;23.02;12.07;;;;;;;-146.27;82.72;43964.50;5461557;26;20617;-67
2024/04/27 06:07:22;;;;;;;24.35;13.07;;;;;;;-146.27;83.35;43912.75;5458648;26;20325;-65
2024/04/27 06:09:47;;;;;;;23.63;14.82;;;;;;;-146.27;83.30;43880.94;5458168;26;19994;-66
2024/04/27 06:12:12;;;;;;;21.70;13.43;;;;;;;-146.27;83.26;43884.91;5470927;26;20038;-66
2024/04/27 06:14:39;;;;;;;24.95;13.90;;;;;;;-146.27;83.59;43900.81;5449821;26;20087;-66
2024/04/27 06:17:05;;;;;;;27.98;15.30;;;;;;;-146.27;84.37;43853.06;5450359;26;20011;-66
2024/04/27 06:19:30;;;;;;;24.98;15.32;;;;;;;-146.27;84.50;43781.47;5463727;26;19997;-69
2024/04/27 06:21:55;;;;;;;29.92;16.50;;;;;;;-146.27;85.24;43745.66;5465286;26;20009;-67
2024/04/27 06:24:21;;;;;;;26.63;15.75;;;;;;;-146.27;85.23;43729.72;5482924;26;20008;-66
2024/04/27 06:26:46;;;;;;;26.65;16.05;;;;;;;-146.27;85.57;43723.75;5485494;26;19994;-66
2024/04/27 06:29:12;;;;;;;27.15;15.65;;;;;;;-146.27;85.88;43678.00;5483743;26;19994;-66
2024/04/27 06:31:38;;;;;;;26.52;17.25;;;;;;;-146.27;86.05;43662.09;5452127;26;20075;-64
2024/04/27 06:34:04;;;;;;;33.20;17.48;;;;;;;-146.27;86.16;43618.31;5459271;26;19990;-66
2024/04/27 06:36:29;;;;;;;34.92;18.33;;;;;;;-146.27;86.21;43622.31;5468586;26;20526;-68
2024/04/27 06:38:58;;;;;;;25.80;15.70;;;;;;;-146.27;86.37;43576.56;5459496;26;19994;-67
2024/04/27 06:41:23;;;;;;;28.50;17.58;;;;;;;-146.27;86.54;43546.72;5477057;26;20870;-64
2024/04/27 06:43:49;;;;;;;28.08;17.63;;;;;;;-146.27;86.32;43540.75;5462317;26;19994;-65
2024/04/27 06:46:14;;;;;;;32.00;18.30;;;;;;;-146.27;86.43;43498.97;5468499;26;20009;-65
2024/04/27 06:48:40;;;;;;;25.73;16.55;;;;;;;-146.27;86.29;43467.13;5457084;26;19991;-65
2024/04/27 06:51:09;;;;;;;23.58;16.60;;;;;;;-146.27;86.72;43459.19;5451605;26;20009;-65
2024/04/27 06:53:35;;;;;;;24.10;15.88;;;;;;;-146.27;86.44;43385.59;5475379;26;20470;-65
2024/04/27 06:56:01;;;;;;;32.58;18.10;;;;;;;-146.27;86.52;43395.53;5465990;26;20001;-65
2024/04/27 06:58:26;;;;;;;29.35;17.40;;;;;;;-146.27;86.41;43401.50;5471258;26;20419;-66
2024/04/27 07:00:53;;;;;;;30.33;17.88;;;;;;;-146.27;87.15;43417.41;5463018;26;20015;-66
2024/04/27 07:03:18;;;;;;;31.92;18.15;;;;;;;-146.27;87.55;43427.34;5485200;26;20499;-65
2024/04/27 07:05:43;;;;;;;31.23;19.15;;;;;;;-146.27;87.32;43495.00;5487901;26;20001;-66
2024/04/27 07:08:09;;;;;;;36.15;19.95;;;;;;;-146.27;87.69;43463.16;5470215;26;19995;-67
2024/04/27 07:10:34;;;;;;;32.10;19.75;;;;;;;-146.27;88.02;43431.34;5451188;26;20003;-65
2024/04/27 07:12:59;;;;;;;36.83;21.13;;;;;;;-146.27;88.67;43431.34;5455723;26;20072;-67
2024/04/27 07:15:25;;;;;;;29.27;17.95;;;;;;;-146.27;88.00;43403.50;5486083;26;20044;-66
2024/04/27 07:17:50;;;;;;;35.47;20.02;;;;;;;-146.27;88.32;43419.41;5479958;26;20013;-69
2024/04/27 07:20:15;;;;;;;35.25;20.05;;;;;;;-146.27;88.23;43373.66;5471556;26;20010;-66
2024/04/27 07:22:41;;;;;;;32.42;18.20;;;;;;;-146.27;87.83;43300.06;5463997;26;19990;-66
2024/04/27 07:25:07;;;;;;;32.13;20.08;;;;;;;-146.27;87.62;43331.88;5470660;26;20002;-65
2024/04/27 07:27:32;;;;;;;29.77;19.08;;;;;;;-146.27;87.43;43343.81;5476685;26;20010;-65
2024/04/27 07:29:58;;;;;;;31.02;19.90;;;;;;;-146.27;87.75;43325.91;5475380;26;20387;-66
2024/04/27 07:32:23;;;;;;;33.40;19.95;;;;;;;-146.27;87.77;43296.06;5457640;26;20006;-66
2024/04/27 07:34:48;;;;;;;32.10;18.85;;;;;;;-146.27;87.89;43286.13;5463333;26;20405;-67
2024/04/27 07:37:14;;;;;;;29.08;18.38;;;;;;;-146.27;87.76;43304.03;5450273;26;20054;-66
2024/04/27 07:39:39;;;;;;;30.25;19.73;;;;;;;-146.27;88.73;43282.16;5450738;26;20014;-65
2024/04/27 07:42:05;;;;;;;33.47;18.98;;;;;;;-146.27;88.57;43246.34;5478174;26;20373;-67
2024/04/27 07:44:30;;;;;;;32.70;20.25;;;;;;;-146.27;88.65;43258.28;5478475;26;20772;-64
2024/04/27 07:46:56;;;;;;;27.55;18.17;;;;;;;-146.27;88.14;43222.47;5457535;26;20005;-66
2024/04/27 07:49:21;;;;;;;33.35;20.25;;;;;;;-146.27;88.32;43264.25;5461586;26;19999;-66
2024/04/27 07:51:47;;;;;;;30.48;19.30;;;;;;;-146.27;88.67;43268.22;5467914;26;20015;-67
2024/04/27 07:54:12;;;;;;;33.80;19.67;;;;;;;-146.27;88.54;43272.19;5457563;26;20007;-67
2024/04/27 07:56:38;;;;;;;31.50;19.13;;;;;;;-146.27;88.89;43268.22;5483554;26;20090;-65
2024/04/27 07:59:03;;;;;;;33.03;19.67;;;;;;;-146.27;88.77;43268.22;5457493;26;19999;-67
2024/04/27 08:01:28;;;;;;;31.05;17.90;;;;;;;-146.27;89.04;43228.44;5452316;26;20002;-64
2024/04/27 08:03:54;;;;;;;34.78;19.45;;;;;;;-146.27;88.76;43184.69;5466517;26;20105;-65
2024/04/27 08:06:19;;;;;;;34.75;19.10;;;;;;;-146.27;88.82;43220.47;5484228;26;19997;-66
2024/04/27 08:08:46;;;;;;;28.83;18.70;;;;;;;-146.27;89.05;43136.94;5474186;26;20066;-64
2024/04/27 08:11:12;;;;;;;32.50;19.90;;;;;;;-146.27;88.82;43109.09;5461238;26;19994;-66
2024/04/27 08:13:40;;;;;;;31.80;18.48;;;;;;;-146.27;88.90;43057.38;5471686;26;20079;-67
2024/04/27 08:16:07;;;;;;;32.72;18.67;;;;;;;-146.27;88.89;43083.22;5451100;26;20346;-67
2024/04/27 08:18:32;;;;;;;29.23;17.70;;;;;;;-146.27;88.52;43057.38;5452633;26;20017;-65
2024/04/27 08:20:57;;;;;;;29.30;16.90;;;;;;;-146.27;87.78;43055.38;5452983;26;20994;-66
2024/04/27 08:23:23;;;;;;;23.48;15.85;;;;;;;-146.27;87.34;43031.53;5462400;26;20017;-64
2024/04/27 08:25:48;;;;;;;24.77;16.40;;;;;;;-146.27;87.48;43067.31;5480096;26;20353;-67
2024/04/27 08:28:13;;;;;;;27.27;16.80;;;;;;;-146.27;86.97;43019.59;5474203;26;20652;-67
2024/04/27 08:30:39;;;;;;;22.85;15.95;;;;;;;-146.27;86.94;42967.88;5473389;26;19995;-67
2024/04/27 08:33:10;;;;;;;24.77;15.13;;;;;;;-146.27;86.01;43033.50;5446631;26;20032;-65
2024/04/27 08:35:40;;;;;;;23.38;14.57;;;;;;;-146.27;85.88;43037.50;5457428;26;20164;-71
2024/04/27 08:38:05;;;;;;;22.75;14.55;;;;;;;-146.27;85.42;43017.59;5486852;26;20009;-70
2024/04/27 08:40:31;;;;;;;20.15;13.90;;;;;;;-146.27;85.72;43045.44;5464417;26;20011;-70
2024/04/27 08:42:58;;;;;;;21.48;14.52;;;;;;;-146.27;85.42;42975.81;5468202;26;19998;-69
2024/04/27 08:45:27;;;;;;;19.98;12.93;;;;;;;-146.27;85.18;43019.59;5447610;26;20343;-70
2024/04/27 08:47:54;;;;;;;16.88;12.05;;;;;;;-146.27;85.46;43045.44;5449308;26;20342;-70
2024/04/27 08:50:21;;;;;;;17.92;12.43;;;;;;;-146.27;85.41;43061.34;5445987;26;19999;-68
2024/04/27 08:52:47;;;;;;;18.27;12.20;;;;;;;-146.27;85.43;43105.13;5472025;26;20463;-70
2024/04/27 08:55:12;;;;;;;18.80;11.85;;;;;;;-146.27;85.19;43071.31;5461901;26;20005;-70
2024/04/27 08:57:37;;;;;;;17.27;10.35;;;;;;;-146.27;84.77;43107.09;5472117;26;19995;-71
2024/04/27 09:00:03;;;;;;;15.88;11.02;;;;;;;-146.27;85.10;43081.25;5451166;26;20315;-72
2024/04/27 09:02:30;;;;;;;16.33;10.65;;;;;;;-146.27;85.39;43101.13;5482823;26;20043;-68
2024/04/27 09:04:55;;;;;;;16.00;10.70;;;;;;;-146.27;84.94;43067.31;5485544;26;20042;-69
2024/04/27 09:07:22;;;;;;;13.70;9.65;;;;;;;-146.27;84.63;43049.41;5485304;26;19993;-70
2024/04/27 09:09:48;;;;;;;14.15;9.48;;;;;;;-146.27;83.76;43113.06;5476520;26;20730;-70
2024/04/27 09:12:13;;;;;;;12.68;9.40;;;;;;;-146.27;83.53;43045.44;5451158;26;20006;-71
2024/04/27 09:14:39;;;;;;;15.45;10.23;;;;;;;-146.27;82.49;43113.06;5447525;26;19991;-70
2024/04/27 09:17:05;;;;;;;10.85;8.55;;;;;;;-146.27;81.57;43208.56;5449380;26;20401;-72
2024/04/27 09:19:31;;;;;;;12.15;8.82;;;;;;;-146.27;82.57;43037.50;5462421;26;19998;-69
2024/04/27 09:21:56;;;;;;;11.57;8.50;;;;;;;-146.27;81.25;43176.72;5449514;26;20450;-71
2024/04/27 09:24:22;;;;;;;10.07;8.20;;;;;;;-146.27;80.81;43128.97;5448795;26;20007;-71
2024/04/27 09:26:48;;;;;;;10.40;7.68;;;;;;;-146.27;80.89;43208.56;5448534;26;20439;-70
2024/04/27 09:29:14;;;;;;;11.52;8.25;;;;;;;-146.27;79.98;43234.41;5478141;26;19994;-71
2024/04/27 09:31:41;;;;;;;11.00;7.78;;;;;;;-146.27;80.52;43150.88;5485270;26;20005;-72
2024/04/27 09:34:07;;;;;;;11.68;8.10;;;;;;;-146.27;79.88;43240.38;5485565;26;20074;-71
2024/04/27 09:36:44;;;;;;;8.95;6.90;;;;;;;-146.27;79.77;43184.69;5485367;26;20435;-70
2024/04/27 09:39:16;;;;;;;6.50;5.63;;;;;;;-146.27;79.04;43327.91;5485893;26;20755;-70
2024/04/27 09:41:45;;;;;;;8.20;5.97;;;;;;;-146.27;78.35;43278.16;5485663;26;19994;-71
2024/04/27 09:44:17;;;;;;;9.02;5.90;;;;;;;-146.27;78.07;43256.28;5482774;26;20002;-71
2024/04/27 09:46:56;;;;;;;5.82;5.20;;;;;;;-146.27;78.54;43339.84;5467739;26;19995;-71
2024/04/27 09:49:45;;;;;;;6.32;4.93;;;;;;;-146.27;78.48;43375.63;5453056;26;20042;-70
2024/04/27 09:52:14;;;;;;;7.38;5.43;;;;;;;-146.27;77.49;43483.06;5481805;26;19998;-70
2024/04/27 09:54:41;;;;;;;7.75;5.80;;;;;;;-146.27;78.22;43407.47;5484909;26;19998;-71
2024/04/27 09:57:08;;;;;;;5.28;4.78;;;;;;;-146.27;76.77;43421.38;5485108;26;19998;-69
2024/04/27 09:59:33;;;;;;;5.90;4.65;;;;;;;-146.27;75.65;43520.84;5484894;26;19999;-70
2024/04/27 10:01:59;;;;;;;6.43;4.85;;;;;;;-146.27;75.46;43646.19;5462344;26;20044;-71
2024/04/27 10:04:30;;;;;;;6.63;5.18;;;;;;;-146.27;74.60;43676.03;5452102;26;20003;-69
2024/04/27 10:07:00;;;;;;;9.10;6.45;;;;;;;-146.27;74.74;43622.31;5452164;26;20018;-71
2024/04/27 10:09:35;;;;;;;5.65;4.57;;;;;;;-146.27;73.93;43614.34;5487642;26;20006;-69
2024/04/27 10:12:02;;;;;;;4.88;4.03;;;;;;;-146.27;73.00;43648.16;5487814;26;20331;-73
2024/04/27 10:14:28;;;;;;;8.63;4.05;;;;;;;-146.27;73.66;43612.34;5488599;26;20074;-70
2024/04/27 10:17:12;;;;;;;4.30;3.33;;;;;;;-146.27;72.32;43777.47;5484770;26;19994;-72
2024/04/27 10:19:38;;;;;;;4.00;3.65;;;;;;;-146.27;73.81;43614.34;5485600;26;20013;-70
2024/04/27 10:22:25;;;;;;;3.90;3.50;;;;;;;-146.27;71.32;43721.78;5488450;26;20005;-71
2024/04/27 10:25:13;;;;;;;4.68;3.28;;;;;;;-146.27;70.62;43753.59;5492323;26;20009;-71
2024/04/27 10:27:39;;;;;;;6.05;3.42;;;;;;;-146.27;70.87;43773.50;5452010;26;19998;-70
2024/04/27 10:30:14;;;;;;;4.03;3.53;;;;;;;-146.27;68.92;44125.63;5459787;26;20010;-70
2024/04/27 10:33:04;;;;;;;2.97;2.38;;;;;;;-146.27;67.90;44215.16;5471796;26;20015;-70
2024/04/27 10:35:29;;;;;;;2.45;1.60;;;;;;;-146.27;65.93;44436.03;5473668;26;20091;-71
2024/04/27 10:37:55;;;;;;;2.53;1.92;;;;;;;-146.27;65.00;44529.53;5487899;26;19994;-71
2024/04/27 10:40:22;;;;;;;3.03;1.98;;;;;;;-146.27;65.59;44625.06;5477233;26;20544;-71
2024/04/27 10:42:48;;;;;;;4.53;3.13;;;;;;;-146.27;67.21;44656.91;5461993;26;20465;-70
2024/04/27 10:45:14;;;;;;;5.03;3.38;;;;;;;-146.27;69.32;44563.38;5475427;26;20063;-71
2024/04/27 10:47:39;;;;;;;4.07;3.60;;;;;;;-146.27;70.82;44581.28;5456440;26;20463;-71
2024/04/27 10:50:06;;;;;;;4.05;3.03;;;;;;;-146.27;71.44;44298.75;5454035;26;20712;-70
2024/04/27 10:52:32;;;;;;;3.55;2.80;;;;;;;-146.27;68.02;44481.78;5473266;26;20017;-71
2024/04/27 10:54:57;;;;;;;3.40;3.00;;;;;;;-146.27;68.58;44523.56;5461742;26;20011;-69
2024/04/27 10:57:26;;;;;;;4.03;2.72;;;;;;;-146.27;69.40;44334.56;5471770;26;20031;-68
2024/04/27 10:59:52;;;;;;;3.20;2.90;;;;;;;-146.27;69.52;44465.88;5466873;26;20753;-66
2024/04/27 11:02:17;;;;;;;3.67;2.83;;;;;;;-146.27;69.29;44533.53;5467125;26;20009;-65
2024/04/27 11:04:42;;;;;;;3.85;3.28;;;;;;;-146.27;70.21;44519.59;5465340;26;20010;-70
2024/04/27 11:07:08;;;;;;;3.88;3.08;;;;;;;-146.27;70.56;44565.38;5453902;26;20014;-66
2024/04/27 11:09:36;;;;;;;5.13;3.22;;;;;;;-146.27;70.98;44589.25;5478498;26;20060;-67
2024/04/27 11:12:01;;;;;;;3.53;3.22;;;;;;;-146.27;71.24;44489.75;5475031;26;20002;-67